Time;durP1;ratioP1;P1;durP2;ratioP2;P2;SDS_P1;SDS_P2;PMS_P1;PMS_P2;Temp;Humidity;BMP_temperature;BMP_pressure;BME280_temperature;BME280_humidity;BME280_pressure;Samples;Min_cycle;Max_cycle;Signal;HPM_P1;HPM_P2
2022/08/15 00:01:11;;;;;;;1.40;1.40;;;;;;;;;;1863589;77;26792;-48
2022/08/15 00:03:40;;;;;;;1.50;1.50;;;;;;;;;;1863351;76;26210;-48
2022/08/15 00:06:09;;;;;;;1.40;1.40;;;;;;;;;;1838496;77;26281;-47
2022/08/15 00:08:38;;;;;;;1.47;1.47;;;;;;;;;;1846001;77;26283;-47
2022/08/15 00:11:07;;;;;;;1.40;1.40;;;;;;;;;;1851092;77;26336;-47
2022/08/15 00:13:35;;;;;;;1.50;1.50;;;;;;;;;;1844810;77;26290;-46
2022/08/15 00:16:03;;;;;;;1.42;1.42;;;;;;;;;;1849481;75;26357;-47
2022/08/15 00:18:30;;;;;;;1.30;1.30;;;;;;;;;;1849949;76;26331;-45
2022/08/15 00:20:58;;;;;;;1.40;1.40;;;;;;;;;;1855586;76;26324;-47
2022/08/15 00:23:26;;;;;;;1.50;1.50;;;;;;;;;;1850646;76;26288;-46
2022/08/15 00:25:55;;;;;;;1.42;1.42;;;;;;;;;;1852110;76;26777;-48
2022/08/15 00:28:22;;;;;;;1.30;1.30;;;;;;;;;;1849730;76;26770;-47
2022/08/15 00:30:50;;;;;;;1.40;1.40;;;;;;;;;;1858137;76;26262;-47
2022/08/15 00:33:18;;;;;;;1.47;1.47;;;;;;;;;;1855405;76;26367;-47
2022/08/15 00:35:47;;;;;;;1.35;1.35;;;;;;;;;;1861320;76;26762;-46
2022/08/15 00:38:16;;;;;;;1.52;1.40;;;;;;;;;;1855689;76;26337;-48
2022/08/15 00:43:33;;;;;;;1.40;1.40;;;;;;;;;;1842610;77;26282;-46
2022/08/15 00:46:00;;;;;;;1.45;1.45;;;;;;;;;;1863487;75;26286;-46
2022/08/15 00:48:44;;;;;;;1.40;1.40;;;;;;;;;;1851607;76;26754;-47
2022/08/15 00:51:12;;;;;;;1.50;1.50;;;;;;;;;;1858846;77;26352;-47
2022/08/15 00:53:41;;;;;;;1.40;1.40;;;;;;;;;;1859467;77;26212;-44
2022/08/15 00:56:10;;;;;;;1.50;1.50;;;;;;;;;;1851060;75;26603;-45
2022/08/15 00:58:38;;;;;;;1.50;1.50;;;;;;;;;;1858956;76;26274;-45
2022/08/15 01:01:07;;;;;;;1.40;1.40;;;;;;;;;;1860520;75;26344;-46
2022/08/15 01:03:35;;;;;;;1.40;1.40;;;;;;;;;;1861122;77;26496;-46
2022/08/15 01:06:03;;;;;;;1.40;1.40;;;;;;;;;;1860556;77;26275;-50
2022/08/15 01:08:35;;;;;;;1.37;1.37;;;;;;;;;;1858472;75;26576;-47
2022/08/15 01:11:04;;;;;;;1.50;1.50;;;;;;;;;;1860852;77;26274;-46
2022/08/15 01:13:32;;;;;;;1.50;1.50;;;;;;;;;;1860652;76;26340;-47
2022/08/15 01:16:00;;;;;;;1.60;1.60;;;;;;;;;;1844032;76;26347;-50
2022/08/15 01:18:28;;;;;;;1.42;1.40;;;;;;;;;;1850464;76;26259;-46
2022/08/15 01:20:57;;;;;;;1.40;1.40;;;;;;;;;;1844772;77;26269;-46
2022/08/15 01:23:25;;;;;;;1.45;1.45;;;;;;;;;;1855339;76;26290;-48
2022/08/15 01:25:54;;;;;;;1.62;1.62;;;;;;;;;;1862568;77;26267;-49
2022/08/15 01:28:32;;;;;;;1.47;1.47;;;;;;;;;;1866626;76;26281;-50
2022/08/15 01:31:01;;;;;;;1.50;1.50;;;;;;;;;;1863686;77;26215;-46
2022/08/15 01:33:31;;;;;;;1.60;1.60;;;;;;;;;;1861544;77;26336;-48
2022/08/15 01:35:59;;;;;;;1.42;1.42;;;;;;;;;;1863196;77;26274;-47
2022/08/15 01:38:27;;;;;;;1.50;1.50;;;;;;;;;;1863268;77;26352;-51
2022/08/15 01:41:13;;;;;;;1.50;1.50;;;;;;;;;;1860276;76;26722;-51
2022/08/15 01:43:42;;;;;;;1.47;1.47;;;;;;;;;;1854612;76;26251;-46
2022/08/15 01:46:11;;;;;;;1.40;1.40;;;;;;;;;;1851763;76;26281;-46
2022/08/15 01:48:41;;;;;;;1.37;1.37;;;;;;;;;;1868817;76;26325;-46
2022/08/15 01:51:10;;;;;;;1.45;1.45;;;;;;;;;;1868059;75;26279;-46
2022/08/15 01:53:46;;;;;;;1.40;1.40;;;;;;;;;;1862968;77;26313;-49
2022/08/15 01:56:15;;;;;;;1.50;1.50;;;;;;;;;;1862962;77;26275;-47
2022/08/15 01:58:43;;;;;;;1.50;1.50;;;;;;;;;;1858680;77;26203;-46
2022/08/15 02:01:12;;;;;;;1.60;1.60;;;;;;;;;;1863492;77;26266;-47
2022/08/15 02:03:41;;;;;;;1.40;1.40;;;;;;;;;;1862543;77;26246;-48
2022/08/15 02:06:09;;;;;;;1.70;1.70;;;;;;;;;;1863251;77;26324;-47
2022/08/15 02:08:37;;;;;;;1.40;1.40;;;;;;;;;;1863566;77;26263;-47
2022/08/15 02:11:06;;;;;;;1.40;1.40;;;;;;;;;;1863261;77;26251;-47
2022/08/15 02:13:34;;;;;;;1.50;1.50;;;;;;;;;;1859889;76;27098;-46
2022/08/15 02:16:02;;;;;;;1.55;1.55;;;;;;;;;;1864409;76;26315;-46
2022/08/15 02:18:29;;;;;;;1.42;1.42;;;;;;;;;;1862051;77;26941;-47
2022/08/15 02:20:59;;;;;;;1.50;1.50;;;;;;;;;;1862944;77;26686;-48
2022/08/15 02:23:27;;;;;;;1.40;1.40;;;;;;;;;;1844342;77;26274;-46
2022/08/15 02:25:55;;;;;;;1.52;1.52;;;;;;;;;;1863608;77;26674;-46
2022/08/15 02:28:23;;;;;;;1.50;1.50;;;;;;;;;;1849290;77;26284;-46
2022/08/15 02:30:51;;;;;;;1.40;1.40;;;;;;;;;;1845350;77;26859;-49
2022/08/15 02:33:18;;;;;;;1.40;1.40;;;;;;;;;;1840387;77;26285;-47
2022/08/15 02:35:45;;;;;;;1.40;1.40;;;;;;;;;;1861996;77;26726;-47
2022/08/15 02:38:13;;;;;;;1.32;1.32;;;;;;;;;;1858998;77;26829;-47
2022/08/15 02:40:40;;;;;;;1.45;1.40;;;;;;;;;;1845884;77;26272;-50
2022/08/15 02:43:09;;;;;;;1.50;1.50;;;;;;;;;;1840352;77;26356;-48
2022/08/15 02:45:38;;;;;;;1.55;1.55;;;;;;;;;;1852347;77;26761;-48
2022/08/15 02:48:10;;;;;;;1.50;1.50;;;;;;;;;;1859749;76;26389;-48
2022/08/15 02:50:39;;;;;;;1.80;1.70;;;;;;;;;;1863180;77;26848;-45
2022/08/15 02:53:14;;;;;;;1.45;1.45;;;;;;;;;;1863267;77;26218;-47
2022/08/15 02:55:42;;;;;;;1.60;1.60;;;;;;;;;;1849269;77;26285;-46
2022/08/15 02:58:11;;;;;;;1.50;1.50;;;;;;;;;;1863444;77;26819;-47
2022/08/15 03:00:39;;;;;;;1.60;1.60;;;;;;;;;;1862758;77;26252;-48
2022/08/15 03:03:08;;;;;;;1.42;1.42;;;;;;;;;;1863570;77;26745;-49
2022/08/15 03:05:36;;;;;;;1.65;1.65;;;;;;;;;;1862096;77;26247;-51
2022/08/15 03:08:04;;;;;;;1.62;1.62;;;;;;;;;;1845562;77;26274;-48
2022/08/15 03:10:32;;;;;;;1.52;1.52;;;;;;;;;;1862612;76;26304;-48
2022/08/15 03:13:01;;;;;;;1.55;1.55;;;;;;;;;;1863028;76;26346;-51
2022/08/15 03:15:31;;;;;;;1.55;1.55;;;;;;;;;;1862860;77;26296;-51
2022/08/15 03:17:59;;;;;;;1.50;1.50;;;;;;;;;;1855834;76;26349;-47
2022/08/15 03:20:27;;;;;;;1.55;1.55;;;;;;;;;;1853885;76;26352;-47
2022/08/15 03:22:54;;;;;;;1.45;1.45;;;;;;;;;;1841279;77;26761;-46
2022/08/15 03:25:25;;;;;;;1.60;1.60;;;;;;;;;;1860782;77;26959;-46
2022/08/15 03:27:52;;;;;;;1.50;1.50;;;;;;;;;;1860964;77;26404;-48
2022/08/15 03:30:20;;;;;;;1.42;1.42;;;;;;;;;;1861042;77;26314;-50
2022/08/15 03:32:49;;;;;;;1.40;1.40;;;;;;;;;;1861245;77;26336;-49
2022/08/15 03:35:16;;;;;;;1.42;1.42;;;;;;;;;;1858506;77;26278;-47
2022/08/15 03:37:44;;;;;;;1.60;1.60;;;;;;;;;;1860390;77;26698;-46
2022/08/15 03:40:12;;;;;;;1.35;1.35;;;;;;;;;;1858742;76;26312;-46
2022/08/15 03:42:39;;;;;;;1.62;1.62;;;;;;;;;;1864485;76;26286;-46
2022/08/15 03:45:08;;;;;;;1.60;1.60;;;;;;;;;;1849771;77;26725;-46
2022/08/15 03:47:35;;;;;;;1.50;1.50;;;;;;;;;;1859188;76;26259;-48
2022/08/15 03:50:04;;;;;;;1.50;1.50;;;;;;;;;;1853301;77;26323;-47
2022/08/15 03:52:32;;;;;;;1.57;1.57;;;;;;;;;;1861089;77;26352;-49
2022/08/15 03:55:01;;;;;;;1.60;1.60;;;;;;;;;;1857173;77;26223;-47
2022/08/15 03:57:28;;;;;;;1.50;1.50;;;;;;;;;;1844557;77;26627;-46
2022/08/15 03:59:55;;;;;;;1.50;1.50;;;;;;;;;;1860691;77;26309;-47
2022/08/15 04:02:24;;;;;;;1.40;1.40;;;;;;;;;;1860649;77;26352;-47
2022/08/15 04:04:52;;;;;;;1.62;1.50;;;;;;;;;;1860926;77;26301;-48
2022/08/15 04:07:19;;;;;;;1.60;1.60;;;;;;;;;;1860218;77;26819;-49
2022/08/15 04:09:47;;;;;;;1.60;1.50;;;;;;;;;;1860136;77;26247;-48
2022/08/15 04:12:16;;;;;;;1.60;1.60;;;;;;;;;;1860409;77;26366;-48
2022/08/15 04:14:44;;;;;;;1.30;1.30;;;;;;;;;;1857187;77;26225;-48
2022/08/15 04:17:11;;;;;;;1.45;1.45;;;;;;;;;;1862553;76;26392;-45
2022/08/15 04:19:38;;;;;;;1.35;1.35;;;;;;;;;;1859765;77;26332;-48
2022/08/15 04:22:06;;;;;;;1.40;1.40;;;;;;;;;;1861725;77;26800;-49
2022/08/15 04:24:33;;;;;;;1.55;1.55;;;;;;;;;;1851394;76;26314;-49
2022/08/15 04:27:01;;;;;;;1.70;1.70;;;;;;;;;;1850485;77;26352;-49
2022/08/15 04:29:28;;;;;;;1.40;1.40;;;;;;;;;;1859880;75;26302;-49
2022/08/15 04:31:56;;;;;;;1.40;1.40;;;;;;;;;;1849694;75;26254;-50
2022/08/15 04:34:25;;;;;;;1.57;1.57;;;;;;;;;;1846361;76;26349;-48
2022/08/15 04:36:52;;;;;;;1.60;1.60;;;;;;;;;;1848942;77;26317;-47
2022/08/15 04:39:20;;;;;;;1.47;1.47;;;;;;;;;;1859388;76;26332;-50
2022/08/15 04:41:47;;;;;;;1.55;1.55;;;;;;;;;;1842746;75;26796;-47
2022/08/15 04:44:15;;;;;;;1.55;1.55;;;;;;;;;;1855225;76;26726;-49
2022/08/15 04:46:42;;;;;;;1.55;1.55;;;;;;;;;;1857345;75;26254;-46
2022/08/15 04:49:10;;;;;;;1.50;1.50;;;;;;;;;;1857683;76;27446;-48
2022/08/15 04:51:37;;;;;;;1.50;1.50;;;;;;;;;;1849830;76;26297;-46
2022/08/15 04:54:05;;;;;;;1.30;1.30;;;;;;;;;;1852778;76;26283;-48
2022/08/15 04:56:32;;;;;;;1.57;1.47;;;;;;;;;;1848799;76;26265;-47
2022/08/15 04:58:59;;;;;;;1.45;1.45;;;;;;;;;;1850693;76;26859;-46
2022/08/15 05:01:27;;;;;;;1.57;1.57;;;;;;;;;;1841374;76;26274;-50
2022/08/15 05:03:54;;;;;;;1.57;1.57;;;;;;;;;;1852704;76;26271;-49
2022/08/15 05:06:21;;;;;;;1.57;1.57;;;;;;;;;;1859738;77;26776;-51
2022/08/15 05:08:49;;;;;;;1.42;1.42;;;;;;;;;;1862375;77;26258;-47
2022/08/15 05:11:18;;;;;;;1.57;1.57;;;;;;;;;;1861995;75;26285;-48
2022/08/15 05:13:45;;;;;;;1.80;1.70;;;;;;;;;;1865129;76;26306;-46
2022/08/15 05:16:13;;;;;;;1.47;1.47;;;;;;;;;;1864968;75;26715;-47
2022/08/15 05:18:42;;;;;;;1.62;1.62;;;;;;;;;;1848090;76;27378;-50
2022/08/15 05:21:10;;;;;;;1.55;1.55;;;;;;;;;;1827580;77;26366;-48
2022/08/15 05:23:38;;;;;;;1.67;1.60;;;;;;;;;;1828388;77;26749;-46
2022/08/15 05:26:06;;;;;;;1.75;1.65;;;;;;;;;;1833083;77;26292;-47
2022/08/15 05:28:33;;;;;;;2.55;1.95;;;;;;;;;;1821598;77;27541;-47
2022/08/15 05:31:02;;;;;;;1.72;1.70;;;;;;;;;;1833171;77;26272;-47
2022/08/15 05:33:30;;;;;;;1.60;1.60;;;;;;;;;;1832896;77;26338;-47
2022/08/15 05:35:59;;;;;;;1.60;1.60;;;;;;;;;;1826459;77;26359;-48
2022/08/15 05:38:28;;;;;;;1.40;1.40;;;;;;;;;;1826818;77;26276;-49
2022/08/15 05:41:00;;;;;;;1.50;1.50;;;;;;;;;;1823492;78;26277;-47
2022/08/15 05:43:29;;;;;;;1.50;1.50;;;;;;;;;;1820536;78;26859;-51
2022/08/15 05:45:58;;;;;;;1.57;1.50;;;;;;;;;;1827792;77;26782;-49
2022/08/15 05:48:27;;;;;;;1.72;1.72;;;;;;;;;;1829557;77;26363;-47
2022/08/15 05:51:13;;;;;;;1.80;1.70;;;;;;;;;;1826663;77;26316;-51
2022/08/15 05:53:42;;;;;;;1.80;1.80;;;;;;;;;;1830291;77;26725;-47
2022/08/15 05:56:20;;;;;;;1.60;1.60;;;;;;;;;;1818334;77;26358;-46
2022/08/15 05:58:51;;;;;;;1.60;1.60;;;;;;;;;;1816488;77;26514;-47
2022/08/15 06:01:20;;;;;;;1.80;1.70;;;;;;;;;;1820255;77;26284;-47
2022/08/15 06:03:49;;;;;;;1.80;1.65;;;;;;;;;;1819319;77;26269;-46
2022/08/15 06:06:18;;;;;;;1.70;1.70;;;;;;;;;;1825807;77;26317;-46
2022/08/15 06:08:46;;;;;;;1.60;1.60;;;;;;;;;;1832452;77;26289;-47
2022/08/15 06:11:26;;;;;;;1.57;1.57;;;;;;;;;;1822246;77;26357;-49
2022/08/15 06:13:55;;;;;;;1.65;1.65;;;;;;;;;;1827639;78;26301;-47
2022/08/15 06:16:30;;;;;;;1.50;1.50;;;;;;;;;;1826369;77;26309;-47
2022/08/15 06:18:59;;;;;;;1.70;1.70;;;;;;;;;;1855485;77;26708;-51
2022/08/15 06:21:43;;;;;;;1.72;1.72;;;;;;;;;;1859373;76;26785;-46
2022/08/15 06:24:27;;;;;;;1.70;1.70;;;;;;;;;;1839276;77;26277;-48
2022/08/15 06:26:56;;;;;;;1.60;1.60;;;;;;;;;;1853906;76;26337;-51
2022/08/15 06:29:28;;;;;;;1.82;1.82;;;;;;;;;;1822746;76;26707;-47
2022/08/15 06:32:00;;;;;;;1.70;1.70;;;;;;;;;;1859537;77;26274;-47
2022/08/15 06:34:35;;;;;;;1.67;1.67;;;;;;;;;;1855065;76;26758;-47
2022/08/15 06:37:04;;;;;;;1.80;1.80;;;;;;;;;;1859204;76;26328;-47
2022/08/15 06:39:41;;;;;;;1.70;1.70;;;;;;;;;;1846474;75;26286;-48
2022/08/15 06:42:14;;;;;;;1.67;1.67;;;;;;;;;;1849323;75;26341;-47
2022/08/15 06:44:42;;;;;;;1.62;1.62;;;;;;;;;;1851472;76;26258;-48
2022/08/15 06:47:11;;;;;;;1.80;1.80;;;;;;;;;;1841971;75;26273;-47
2022/08/15 06:49:40;;;;;;;2.05;1.95;;;;;;;;;;1852600;76;26238;-51
2022/08/15 06:52:08;;;;;;;1.90;1.90;;;;;;;;;;1849044;75;26788;-50
2022/08/15 06:54:36;;;;;;;1.87;1.77;;;;;;;;;;1850103;76;26294;-50
2022/08/15 06:57:11;;;;;;;1.80;1.80;;;;;;;;;;1841777;76;26336;-49
2022/08/15 06:59:42;;;;;;;2.10;2.00;;;;;;;;;;1847633;76;26329;-47
2022/08/15 07:02:23;;;;;;;1.80;1.80;;;;;;;;;;1860645;76;26278;-47
2022/08/15 07:04:58;;;;;;;1.90;1.90;;;;;;;;;;1836458;76;26399;-50
2022/08/15 07:07:35;;;;;;;2.05;1.95;;;;;;;;;;1841122;76;26270;-47
2022/08/15 07:10:04;;;;;;;1.90;1.90;;;;;;;;;;1834105;77;26218;-48
2022/08/15 07:12:42;;;;;;;2.10;2.00;;;;;;;;;;1839595;76;26830;-48
2022/08/15 07:15:17;;;;;;;1.80;1.80;;;;;;;;;;1860649;76;26267;-47
2022/08/15 07:17:52;;;;;;;1.82;1.82;;;;;;;;;;1855390;75;26283;-47
2022/08/15 07:20:19;;;;;;;1.82;1.82;;;;;;;;;;1845204;76;26313;-48
2022/08/15 07:22:47;;;;;;;1.92;1.92;;;;;;;;;;1854343;77;26344;-47
2022/08/15 07:25:15;;;;;;;2.02;1.92;;;;;;;;;;1857434;76;26746;-47
2022/08/15 07:27:45;;;;;;;2.10;2.00;;;;;;;;;;1860270;76;26917;-48
2022/08/15 07:30:20;;;;;;;1.80;1.80;;;;;;;;;;1858902;77;26283;-47
2022/08/15 07:32:50;;;;;;;1.87;1.87;;;;;;;;;;1852816;76;26423;-47
2022/08/15 07:35:22;;;;;;;1.82;1.82;;;;;;;;;;1840377;76;26429;-50
2022/08/15 07:38:00;;;;;;;1.77;1.77;;;;;;;;;;1847291;75;26356;-49
2022/08/15 07:40:31;;;;;;;1.85;1.85;;;;;;;;;;1851694;77;26376;-48
2022/08/15 07:43:01;;;;;;;1.90;1.90;;;;;;;;;;1845729;77;26642;-48
2022/08/15 07:45:31;;;;;;;2.00;2.00;;;;;;;;;;1838577;75;26286;-47
2022/08/15 07:47:59;;;;;;;1.80;1.80;;;;;;;;;;1862815;75;26309;-47
2022/08/15 07:50:34;;;;;;;2.00;2.00;;;;;;;;;;1857608;76;26708;-49
2022/08/15 07:53:04;;;;;;;2.00;2.00;;;;;;;;;;1860794;77;26415;-48
2022/08/15 07:55:32;;;;;;;1.90;1.90;;;;;;;;;;1832020;77;26282;-44
2022/08/15 07:58:02;;;;;;;1.82;1.82;;;;;;;;;;1847547;75;26286;-48
2022/08/15 08:00:30;;;;;;;2.00;1.98;;;;;;;;;;1860613;76;26353;-51
2022/08/15 08:03:05;;;;;;;1.77;1.77;;;;;;;;;;1846825;77;26668;-49
2022/08/15 08:05:34;;;;;;;1.70;1.70;;;;;;;;;;1857048;76;26366;-49
2022/08/15 08:08:04;;;;;;;1.90;1.90;;;;;;;;;;1854112;75;26333;-54
2022/08/15 08:10:35;;;;;;;2.35;1.85;;;;;;;;;;1828260;76;26830;-52
2022/08/15 08:13:13;;;;;;;2.05;2.05;;;;;;;;;;1838907;76;26333;-51
2022/08/15 08:15:42;;;;;;;2.00;2.00;;;;;;;;;;1831992;76;26331;-48
2022/08/15 08:18:28;;;;;;;1.90;1.82;;;;;;;;;;1813448;77;26285;-49
2022/08/15 08:20:56;;;;;;;2.08;2.08;;;;;;;;;;1826541;77;26259;-47
2022/08/15 08:23:31;;;;;;;2.00;2.00;;;;;;;;;;1810870;77;26288;-47
2022/08/15 08:26:06;;;;;;;1.85;1.85;;;;;;;;;;1791108;79;26297;-47
2022/08/15 08:28:44;;;;;;;1.90;1.90;;;;;;;;;;1794706;79;26293;-47
2022/08/15 08:31:16;;;;;;;1.95;1.90;;;;;;;;;;1860009;77;26333;-46
2022/08/15 08:34:05;;;;;;;1.90;1.90;;;;;;;;;;1861194;77;26275;-47
2022/08/15 08:36:50;;;;;;;2.08;2.08;;;;;;;;;;1858214;76;26826;-48
2022/08/15 08:39:21;;;;;;;1.80;1.80;;;;;;;;;;1842149;77;26285;-48
2022/08/15 08:41:50;;;;;;;2.10;2.00;;;;;;;;;;1847049;77;26211;-48
2022/08/15 08:44:23;;;;;;;1.87;1.87;;;;;;;;;;1860223;76;26274;-49
2022/08/15 08:46:58;;;;;;;1.80;1.80;;;;;;;;;;1850215;75;26232;-50
2022/08/15 08:49:30;;;;;;;2.00;1.90;;;;;;;;;;1857136;77;26311;-50
2022/08/15 08:52:14;;;;;;;1.80;1.80;;;;;;;;;;1858987;76;26331;-45
2022/08/15 08:54:49;;;;;;;1.80;1.80;;;;;;;;;;1840996;76;27068;-47
2022/08/15 08:57:18;;;;;;;2.10;2.00;;;;;;;;;;1821136;77;27375;-46
2022/08/15 08:59:49;;;;;;;1.72;1.72;;;;;;;;;;1859094;76;27663;-46
2022/08/15 09:02:18;;;;;;;1.90;1.90;;;;;;;;;;1855691;76;26263;-49
2022/08/15 09:04:48;;;;;;;2.10;2.10;;;;;;;;;;1849308;76;26280;-47
2022/08/15 09:07:17;;;;;;;1.90;1.90;;;;;;;;;;1853747;77;26326;-50
2022/08/15 09:09:45;;;;;;;2.15;2.12;;;;;;;;;;1844777;76;26281;-50
2022/08/15 09:15:04;;;;;;;2.00;2.00;;;;;;;;;;1847402;76;26318;-50
2022/08/15 09:17:33;;;;;;;2.08;2.08;;;;;;;;;;1866126;75;26250;-49
2022/08/15 09:20:05;;;;;;;2.08;2.00;;;;;;;;;;1853676;76;26759;-48
2022/08/15 09:22:33;;;;;;;2.10;2.00;;;;;;;;;;1858981;77;26286;-51
2022/08/15 09:25:01;;;;;;;1.90;1.90;;;;;;;;;;1857132;75;26238;-47
2022/08/15 09:27:32;;;;;;;1.80;1.80;;;;;;;;;;1851847;77;26302;-46
2022/08/15 09:30:04;;;;;;;2.00;2.00;;;;;;;;;;1873221;75;26369;-47
2022/08/15 09:32:33;;;;;;;1.72;1.72;;;;;;;;;;1860498;76;26353;-47
2022/08/15 09:35:02;;;;;;;2.10;2.10;;;;;;;;;;1832740;76;26274;-47
2022/08/15 09:37:31;;;;;;;2.20;2.10;;;;;;;;;;1849977;76;26275;-47
2022/08/15 09:40:03;;;;;;;1.80;1.80;;;;;;;;;;1860456;76;26242;-48
2022/08/15 09:42:49;;;;;;;1.82;1.82;;;;;;;;;;1859671;76;26297;-50
2022/08/15 09:45:20;;;;;;;2.00;2.00;;;;;;;;;;1848232;76;26801;-52
2022/08/15 09:47:49;;;;;;;2.10;2.10;;;;;;;;;;1862801;75;26268;-45
2022/08/15 09:50:18;;;;;;;1.90;1.90;;;;;;;;;;1850764;76;26286;-48
2022/08/15 09:53:02;;;;;;;1.80;1.80;;;;;;;;;;1855611;76;26313;-50
2022/08/15 09:55:32;;;;;;;2.05;2.05;;;;;;;;;;1850106;76;26288;-48
2022/08/15 09:58:01;;;;;;;1.80;1.80;;;;;;;;;;1850393;76;26317;-47
2022/08/15 10:00:29;;;;;;;1.90;1.90;;;;;;;;;;1855670;77;26336;-47
2022/08/15 10:02:58;;;;;;;2.10;2.00;;;;;;;;;;1863249;76;26364;-46
2022/08/15 10:05:30;;;;;;;2.25;2.15;;;;;;;;;;1860165;76;26344;-45
2022/08/15 10:08:01;;;;;;;2.12;2.08;;;;;;;;;;1857980;77;26356;-47
2022/08/15 10:10:35;;;;;;;2.10;2.00;;;;;;;;;;1859868;75;26287;-49
2022/08/15 10:13:07;;;;;;;2.02;2.02;;;;;;;;;;1843227;77;26258;-46
2022/08/15 10:15:43;;;;;;;2.00;2.00;;;;;;;;;;1847426;76;26320;-46
2022/08/15 10:18:12;;;;;;;2.20;2.10;;;;;;;;;;1860570;76;26742;-46
2022/08/15 10:20:41;;;;;;;2.00;2.00;;;;;;;;;;1855441;76;26857;-46
2022/08/15 10:23:10;;;;;;;2.00;2.00;;;;;;;;;;1841678;77;26764;-51
2022/08/15 10:25:39;;;;;;;1.85;1.85;;;;;;;;;;1852656;76;26720;-48
2022/08/15 10:28:14;;;;;;;1.87;1.87;;;;;;;;;;1845546;76;26268;-47
2022/08/15 10:30:46;;;;;;;2.33;2.22;;;;;;;;;;1861406;77;26336;-48
2022/08/15 10:33:21;;;;;;;1.90;1.90;;;;;;;;;;1863576;76;26275;-47
2022/08/15 10:35:49;;;;;;;2.02;2.02;;;;;;;;;;1861283;76;26301;-51
2022/08/15 10:38:23;;;;;;;1.87;1.87;;;;;;;;;;1862521;77;26266;-48
2022/08/15 10:41:01;;;;;;;2.00;2.00;;;;;;;;;;1861803;75;26282;-49
2022/08/15 10:43:29;;;;;;;2.10;2.00;;;;;;;;;;1859576;76;27247;-47
2022/08/15 10:45:59;;;;;;;1.85;1.85;;;;;;;;;;1864714;76;26266;-49
2022/08/15 10:48:48;;;;;;;2.00;2.00;;;;;;;;;;1860556;77;26219;-48
2022/08/15 10:51:26;;;;;;;2.00;2.00;;;;;;;;;;1860685;76;26286;-48
2022/08/15 10:54:01;;;;;;;2.20;2.10;;;;;;;;;;1860682;76;26814;-51
2022/08/15 10:56:30;;;;;;;1.95;1.95;;;;;;;;;;1860934;76;26711;-51
2022/08/15 10:59:02;;;;;;;2.12;2.10;;;;;;;;;;1855333;76;27446;-50
2022/08/15 11:01:32;;;;;;;2.20;2.10;;;;;;;;;;1858286;77;26602;-47
2022/08/15 11:04:01;;;;;;;2.25;2.15;;;;;;;;;;1862962;77;26274;-49
2022/08/15 11:06:29;;;;;;;2.00;2.00;;;;;;;;;;1861383;76;26289;-49
2022/08/15 11:08:58;;;;;;;2.22;2.12;;;;;;;;;;1861639;76;26360;-47
2022/08/15 11:11:27;;;;;;;2.12;2.12;;;;;;;;;;1859592;77;27183;-49
2022/08/15 11:13:59;;;;;;;2.10;2.10;;;;;;;;;;1850939;76;26267;-49
2022/08/15 11:16:31;;;;;;;1.90;1.90;;;;;;;;;;1864303;76;26751;-48
2022/08/15 11:18:59;;;;;;;2.00;2.00;;;;;;;;;;1860827;77;26278;-50
2022/08/15 11:21:28;;;;;;;2.05;2.00;;;;;;;;;;1849855;76;26817;-49
2022/08/15 11:23:57;;;;;;;2.00;2.00;;;;;;;;;;1850475;76;26353;-47
2022/08/15 11:26:27;;;;;;;1.90;1.90;;;;;;;;;;1836464;76;27274;-47
2022/08/15 11:28:56;;;;;;;1.90;1.90;;;;;;;;;;1835097;76;26360;-46
2022/08/15 11:31:24;;;;;;;2.05;2.05;;;;;;;;;;1834371;76;26297;-46
2022/08/15 11:33:54;;;;;;;2.00;2.00;;;;;;;;;;1860444;77;26290;-47
2022/08/15 11:36:22;;;;;;;2.05;2.05;;;;;;;;;;1861449;76;26323;-47
2022/08/15 11:38:53;;;;;;;1.90;1.90;;;;;;;;;;1862292;77;26275;-48
2022/08/15 11:41:26;;;;;;;2.08;2.08;;;;;;;;;;1860507;76;26262;-46
2022/08/15 11:43:56;;;;;;;1.95;1.95;;;;;;;;;;1847476;77;26367;-47
2022/08/15 11:46:24;;;;;;;2.00;1.90;;;;;;;;;;1843026;75;26282;-46
2022/08/15 11:48:53;;;;;;;2.10;2.10;;;;;;;;;;1837581;76;26285;-48
2022/08/15 11:51:25;;;;;;;2.30;2.20;;;;;;;;;;1840491;75;26646;-46
2022/08/15 11:54:03;;;;;;;2.08;2.05;;;;;;;;;;1835617;76;26356;-47
2022/08/15 11:56:44;;;;;;;2.00;2.00;;;;;;;;;;1838293;75;26270;-47
2022/08/15 11:59:15;;;;;;;1.90;1.90;;;;;;;;;;1858531;76;26266;-47
2022/08/15 12:01:44;;;;;;;1.90;1.90;;;;;;;;;;1860802;76;26840;-47
2022/08/15 12:04:12;;;;;;;2.17;2.10;;;;;;;;;;1857201;76;26283;-47
2022/08/15 12:06:41;;;;;;;2.00;2.00;;;;;;;;;;1842487;76;26277;-47
2022/08/15 12:09:13;;;;;;;2.15;2.10;;;;;;;;;;1849343;77;26306;-46
2022/08/15 12:11:42;;;;;;;2.00;2.00;;;;;;;;;;1844735;76;26269;-48
2022/08/15 12:14:23;;;;;;;2.08;2.08;;;;;;;;;;1842874;76;26282;-47
2022/08/15 12:16:51;;;;;;;2.40;2.30;;;;;;;;;;1848824;75;26276;-47
2022/08/15 12:19:23;;;;;;;1.92;1.90;;;;;;;;;;1850826;76;26266;-46
2022/08/15 12:21:51;;;;;;;2.00;2.00;;;;;;;;;;1848707;76;26286;-46
2022/08/15 12:24:23;;;;;;;2.50;2.30;;;;;;;;;;1849843;76;26270;-47
2022/08/15 12:26:51;;;;;;;2.45;2.35;;;;;;;;;;1843518;77;26574;-50
2022/08/15 12:29:24;;;;;;;2.40;2.30;;;;;;;;;;1884089;75;26739;-49
2022/08/15 12:31:53;;;;;;;2.10;2.10;;;;;;;;;;1860288;75;26333;-50
2022/08/15 12:34:24;;;;;;;1.95;1.95;;;;;;;;;;1852947;75;26338;-52
2022/08/15 12:36:51;;;;;;;2.30;2.30;;;;;;;;;;1854191;76;26720;-50
2022/08/15 12:39:20;;;;;;;2.27;2.20;;;;;;;;;;1836046;75;26772;-46
2022/08/15 12:41:49;;;;;;;2.10;2.10;;;;;;;;;;1835454;75;26343;-47
2022/08/15 12:44:24;;;;;;;2.60;2.40;;;;;;;;;;1834388;76;26308;-47
2022/08/15 12:46:52;;;;;;;2.50;2.40;;;;;;;;;;1844692;75;26258;-49
2022/08/15 12:49:19;;;;;;;2.50;2.40;;;;;;;;;;1843580;76;26240;-50
2022/08/15 12:51:47;;;;;;;2.70;2.50;;;;;;;;;;1841494;76;26278;-51
2022/08/15 12:54:14;;;;;;;2.60;2.50;;;;;;;;;;1849815;77;26260;-48
2022/08/15 12:56:43;;;;;;;2.62;2.52;;;;;;;;;;1858743;77;26840;-47
2022/08/15 12:59:11;;;;;;;2.58;2.47;;;;;;;;;;1859798;77;26864;-50
2022/08/15 13:01:39;;;;;;;2.55;2.45;;;;;;;;;;1844965;76;26735;-48
2022/08/15 13:04:10;;;;;;;2.42;2.33;;;;;;;;;;1860643;76;26799;-46
2022/08/15 13:06:46;;;;;;;2.45;2.37;;;;;;;;;;1860643;77;26275;-47
2022/08/15 13:09:14;;;;;;;2.50;2.40;;;;;;;;;;1841319;76;26360;-46
2022/08/15 13:11:42;;;;;;;2.72;2.62;;;;;;;;;;1845341;75;26870;-46
2022/08/15 13:14:11;;;;;;;2.65;2.55;;;;;;;;;;1855147;75;26318;-49
2022/08/15 13:16:39;;;;;;;2.70;2.60;;;;;;;;;;1853515;75;26261;-48
2022/08/15 13:19:08;;;;;;;2.47;2.40;;;;;;;;;;1860107;75;26798;-47
2022/08/15 13:24:21;;;;;;;2.60;2.50;;;;;;;;;;1856077;75;26360;-48
2022/08/15 13:26:48;;;;;;;2.58;2.47;;;;;;;;;;1849445;76;26336;-46
2022/08/15 13:29:18;;;;;;;2.42;2.33;;;;;;;;;;1859736;75;26262;-47
2022/08/15 13:31:46;;;;;;;2.75;2.58;;;;;;;;;;1858960;75;26286;-47
2022/08/15 13:34:15;;;;;;;2.60;2.50;;;;;;;;;;1848222;76;26378;-47
2022/08/15 13:36:43;;;;;;;2.67;2.58;;;;;;;;;;1843559;76;26372;-49
2022/08/15 13:39:11;;;;;;;2.60;2.50;;;;;;;;;;1845003;76;26726;-47
2022/08/15 13:41:39;;;;;;;2.60;2.50;;;;;;;;;;1859125;76;26273;-47
2022/08/15 13:44:06;;;;;;;2.47;2.40;;;;;;;;;;1858059;75;26893;-49
2022/08/15 13:46:35;;;;;;;2.75;2.65;;;;;;;;;;1840153;76;26438;-48
2022/08/15 13:49:03;;;;;;;2.60;2.50;;;;;;;;;;1847308;76;26751;-48
2022/08/15 13:51:32;;;;;;;2.62;2.52;;;;;;;;;;1846089;76;26369;-49
2022/08/15 13:54:00;;;;;;;2.55;2.45;;;;;;;;;;1844134;75;26286;-48
2022/08/15 13:56:29;;;;;;;2.47;2.37;;;;;;;;;;1852182;76;26294;-46
2022/08/15 13:58:57;;;;;;;2.62;2.52;;;;;;;;;;1840779;76;26242;-49
2022/08/15 14:01:25;;;;;;;2.65;2.47;;;;;;;;;;1861725;77;26242;-46
2022/08/15 14:03:54;;;;;;;2.67;2.58;;;;;;;;;;1860836;76;26278;-48
2022/08/15 14:06:22;;;;;;;2.47;2.40;;;;;;;;;;1841722;76;26258;-47
2022/08/15 14:08:49;;;;;;;2.58;2.47;;;;;;;;;;1854340;75;26332;-47
2022/08/15 14:11:16;;;;;;;2.80;2.70;;;;;;;;;;1841453;75;26257;-47
2022/08/15 14:13:44;;;;;;;2.60;2.50;;;;;;;;;;1859748;75;26420;-48
2022/08/15 14:16:12;;;;;;;2.50;2.40;;;;;;;;;;1849982;77;26398;-46
2022/08/15 14:18:40;;;;;;;2.40;2.30;;;;;;;;;;1863122;76;26250;-47
2022/08/15 14:21:09;;;;;;;2.60;2.50;;;;;;;;;;1862482;75;26283;-45
2022/08/15 14:23:36;;;;;;;2.77;2.67;;;;;;;;;;1854062;76;26366;-46
2022/08/15 14:26:04;;;;;;;2.60;2.50;;;;;;;;;;1854107;76;26823;-47
2022/08/15 14:28:33;;;;;;;2.80;2.70;;;;;;;;;;1862225;75;26714;-46
2022/08/15 14:31:01;;;;;;;2.55;2.45;;;;;;;;;;1860573;75;26235;-50
2022/08/15 14:33:31;;;;;;;2.67;2.58;;;;;;;;;;1855361;75;26280;-46
2022/08/15 14:35:59;;;;;;;2.60;2.50;;;;;;;;;;1847109;75;26279;-50
2022/08/15 14:38:27;;;;;;;2.67;2.58;;;;;;;;;;1858689;75;26220;-51
2022/08/15 14:40:55;;;;;;;2.60;2.50;;;;;;;;;;1863852;75;26754;-49
2022/08/15 14:43:23;;;;;;;2.67;2.58;;;;;;;;;;1870628;75;26753;-48
2022/08/15 14:45:51;;;;;;;2.62;2.52;;;;;;;;;;1877215;75;26374;-46
2022/08/15 14:48:21;;;;;;;2.50;2.45;;;;;;;;;;1859189;75;26225;-47
2022/08/15 14:50:49;;;;;;;2.67;2.58;;;;;;;;;;1855161;76;26894;-46
2022/08/15 14:53:21;;;;;;;2.60;2.50;;;;;;;;;;1854545;75;26263;-50
2022/08/15 14:55:46;;;;;;;2.60;2.50;;;;;;;;;;1861832;76;26742;-46
2022/08/15 14:58:14;;;;;;;2.65;2.55;;;;;;;;;;1868282;75;26800;-47
2022/08/15 15:00:42;;;;;;;2.70;2.60;;;;;;;;;;1866573;75;26279;-49
2022/08/15 15:03:10;;;;;;;2.58;2.50;;;;;;;;;;1867511;75;26299;-47
2022/08/15 15:05:38;;;;;;;2.77;2.67;;;;;;;;;;1850000;75;26344;-48
2022/08/15 15:08:06;;;;;;;2.87;2.70;;;;;;;;;;1859100;75;26670;-49